LCLK/LCA METAR and TAF weather

Enter ICAO airport designator
Station Type Date Time Source
LCLK METAR 2022/01/25 05:00 UTC NOAA

LCLK 250500Z 14014KT 8000 -RA FEW008 SCT025 BKN050 09/07 Q1017 RERA NOSIG


Station Type Date Time Source
LCLK Decoded METAR 2022/01/25 05:00 UTC NOAA

Larnaca Airport, Cyprus (LCLK) 34-53N 033-38E 2M
Jan 25, 2022 - 12:00 AM EST / 2022.01.25 0500 UTC
Wind: from the SE (140 degrees) at 16 MPH (14 KT):0
Visibility: 4 mile(s):0
Sky conditions: mostly cloudy
Weather: light rain
Temperature: 48 F (9 C)
Dew Point: 44 F (7 C)
Relative Humidity: 87%
Pressure (altimeter): 30.03 in. Hg (1017 hPa)
ob: LCLK 250500Z 14014KT 8000 -RA FEW008 SCT025 BKN050 09/07 Q1017 RERA NOSIG
cycle: 5

Station Type Date Time Source
LCLK TAF 2022/01/24 18:33 UTC NOAA

TAF TAF LCLK 241730Z 2418/2518 03007KT 9999 SCT025 SCT050
BECMG 2419/2422 15015KT PROB40
TEMPO 2500/2518 4000 RA BKN022
BECMG 2502/2505 22024KT PROB40
TEMPO 2503/2516 VRB20G32KT 1500 TSRA BKN022CB
BECMG 2513/2515 22014KT
BECMG 2516/2518 29008KT

Example: see airport list